createdAt,value
2023-02-06T00:02:00.176Z,13.60
2023-02-06T00:05:04.446Z,13.13
2023-02-06T00:08:08.356Z,13.18
2023-02-06T00:11:14.889Z,13.13
2023-02-06T00:14:18.452Z,19.73
2023-02-06T00:17:22.104Z,24.35
2023-02-06T00:20:26.014Z,14.57
2023-02-06T00:23:30.033Z,30.63
2023-02-06T00:26:33.798Z,30.55
2023-02-06T00:29:37.497Z,22.88
2023-02-06T00:32:41.293Z,26.15
2023-02-06T00:35:45.315Z,13.97
2023-02-06T00:38:49.011Z,14.52
2023-02-06T00:41:52.937Z,28.83
2023-02-06T00:44:55.959Z,21.10
2023-02-06T00:47:59.840Z,26.95
2023-02-06T00:51:03.468Z,24.40
2023-02-06T00:54:08.294Z,48.63
2023-02-06T00:57:11.906Z,86.68
2023-02-06T01:00:17.897Z,63.70
2023-02-06T01:03:22.214Z,90.43
2023-02-06T01:06:25.446Z,107.07
2023-02-06T01:09:29.050Z,66.22
2023-02-06T01:12:33.886Z,56.00
2023-02-06T01:15:37.628Z,103.40
2023-02-06T01:18:41.528Z,63.08
2023-02-06T01:21:45.162Z,119.55
2023-02-06T01:24:48.569Z,73.95
2023-02-06T01:27:52.235Z,50.55
2023-02-06T01:30:55.720Z,118.82
2023-02-06T01:34:01.147Z,34.95
2023-02-06T01:37:04.379Z,67.57
2023-02-06T01:40:10.748Z,118.85
2023-02-06T01:43:19.409Z,83.13
2023-02-06T01:46:22.952Z,46.67
2023-02-06T01:49:35.853Z,145.45
2023-02-06T01:52:38.827Z,182.68
2023-02-06T01:55:45.244Z,171.27
2023-02-06T01:58:59.789Z,147.02
2023-02-06T02:02:03.878Z,111.63
2023-02-06T02:05:12.248Z,145.57
2023-02-06T02:08:21.502Z,178.07
2023-02-06T02:11:31.479Z,104.15
2023-02-06T02:14:36.424Z,136.95
2023-02-06T02:18:12.059Z,164.60
2023-02-06T02:21:27.287Z,99.05
2023-02-06T02:25:07.532Z,138.38
2023-02-06T02:28:22.486Z,145.73
2023-02-06T02:31:29.208Z,117.72
2023-02-06T02:35:02.781Z,123.90
2023-02-06T02:38:06.305Z,124.45
2023-02-06T02:41:32.001Z,92.33
2023-02-06T02:44:39.167Z,34.25
2023-02-06T02:48:05.745Z,25.73
2023-02-06T02:51:11.735Z,35.90
2023-02-06T02:54:15.019Z,29.70
2023-02-06T02:57:28.282Z,32.30
2023-02-06T03:00:35.762Z,24.45
2023-02-06T03:03:42.828Z,23.35
2023-02-06T03:07:23.187Z,23.90
2023-02-06T03:10:57.076Z,31.42
2023-02-06T03:14:00.401Z,27.97
2023-02-06T03:17:10.385Z,32.33
2023-02-06T03:20:15.753Z,23.83
2023-02-06T03:23:28.473Z,26.67
2023-02-06T03:26:34.050Z,26.60
2023-02-06T03:29:39.566Z,23.15
2023-02-06T03:32:45.919Z,17.73
2023-02-06T03:35:50.082Z,17.70
2023-02-06T03:38:54.831Z,9.93
2023-02-06T03:42:00.435Z,8.57
2023-02-06T03:45:18.541Z,6.23
2023-02-06T03:48:53.197Z,7.30
2023-02-06T03:52:02.325Z,5.53
2023-02-06T03:55:12.016Z,5.70
2023-02-06T03:58:17.027Z,6.68
2023-02-06T04:01:20.257Z,4.43
2023-02-06T04:04:30.164Z,4.70
2023-02-06T04:07:36.821Z,4.45
2023-02-06T04:10:40.486Z,3.80
2023-02-06T04:13:44.100Z,4.53
2023-02-06T04:16:47.994Z,5.73
2023-02-06T04:19:50.776Z,5.10
2023-02-06T04:22:54.756Z,5.57
2023-02-06T04:25:58.499Z,5.03
2023-02-06T04:29:02.314Z,7.75
2023-02-06T04:32:06.836Z,3.80
2023-02-06T04:35:09.968Z,4.97
2023-02-06T04:38:13.170Z,6.22
2023-02-06T04:41:16.822Z,5.82
2023-02-06T04:44:21.370Z,7.32
2023-02-06T04:47:24.636Z,4.93
2023-02-06T04:50:32.326Z,4.40
2023-02-06T04:53:36.246Z,6.55
2023-02-06T04:56:40.014Z,5.50
2023-02-06T04:59:42.944Z,9.32
2023-02-06T05:02:45.914Z,6.03
2023-02-06T05:05:49.472Z,6.68
2023-02-06T05:08:53.032Z,8.15
2023-02-06T05:11:57.413Z,6.78
2023-02-06T05:15:01.010Z,8.63
2023-02-06T05:18:04.232Z,6.30
2023-02-06T05:21:08.651Z,6.10
2023-02-06T05:24:12.117Z,7.20
2023-02-06T05:27:15.127Z,5.20
2023-02-06T05:30:18.653Z,6.25
2023-02-06T05:33:21.675Z,4.53
2023-02-06T05:36:24.658Z,4.85
2023-02-06T05:39:27.642Z,4.43
2023-02-06T05:42:32.400Z,4.38
2023-02-06T05:45:36.252Z,3.30
2023-02-06T05:48:41.848Z,3.63
2023-02-06T05:51:45.869Z,5.55
2023-02-06T05:54:51.540Z,8.55
2023-02-06T05:57:55.317Z,8.80
2023-02-06T06:00:59.448Z,8.32
2023-02-06T06:04:02.432Z,4.93
2023-02-06T06:07:06.186Z,5.13
2023-02-06T06:10:09.969Z,4.50
2023-02-06T06:13:13.114Z,5.15
2023-02-06T06:16:16.090Z,5.80
2023-02-06T06:19:20.334Z,4.30
2023-02-06T06:22:23.694Z,3.30
2023-02-06T06:25:27.546Z,2.97
2023-02-06T06:28:30.509Z,6.40
2023-02-06T06:31:33.835Z,6.97
2023-02-06T06:34:37.607Z,5.47
2023-02-06T06:37:40.864Z,3.90
2023-02-06T06:40:43.772Z,3.75
2023-02-06T06:43:47.401Z,6.90
2023-02-06T06:46:50.912Z,9.07
2023-02-06T06:49:54.557Z,12.57
2023-02-06T06:52:57.386Z,9.70
2023-02-06T06:56:05.844Z,9.65
2023-02-06T06:59:09.365Z,8.15
2023-02-06T07:02:12.959Z,6.20
2023-02-06T07:05:16.303Z,6.43
2023-02-06T07:08:20.402Z,10.60
2023-02-06T07:11:24.850Z,7.57
2023-02-06T07:14:28.510Z,6.57
2023-02-06T07:17:31.563Z,13.80
2023-02-06T07:31:46.597Z,9.18
2023-02-06T07:34:49.902Z,8.77
2023-02-06T07:37:56.573Z,9.88
2023-02-06T07:41:04.056Z,12.57
2023-02-06T07:44:08.620Z,11.82
2023-02-06T07:47:11.483Z,13.03
2023-02-06T07:50:14.996Z,9.10
2023-02-06T07:53:18.578Z,10.77
2023-02-06T07:56:23.895Z,9.43
2023-02-06T07:59:27.621Z,11.38
2023-02-06T08:02:31.191Z,12.57
2023-02-06T08:05:35.655Z,11.88
2023-02-06T08:08:39.799Z,16.75
2023-02-06T08:11:44.509Z,20.10
2023-02-06T08:14:47.825Z,21.95
2023-02-06T08:17:51.487Z,20.77
2023-02-06T08:20:55.148Z,21.63
2023-02-06T08:24:00.408Z,18.77
2023-02-06T08:27:04.353Z,15.75
2023-02-06T08:30:08.594Z,15.23
2023-02-06T08:33:12.646Z,10.65
2023-02-06T08:36:17.425Z,9.18
2023-02-06T08:39:20.596Z,8.07
2023-02-06T08:42:24.040Z,11.32
2023-02-06T08:45:27.320Z,12.23
2023-02-06T08:48:31.045Z,14.47
2023-02-06T08:51:36.686Z,17.40
2023-02-06T08:54:40.283Z,18.25
2023-02-06T08:57:44.252Z,16.48
2023-02-06T09:00:47.172Z,17.60
2023-02-06T09:03:50.732Z,15.90
2023-02-06T09:06:53.945Z,13.00
2023-02-06T09:09:57.447Z,12.07
2023-02-06T09:13:02.463Z,10.75
2023-02-06T09:16:07.114Z,9.02
2023-02-06T09:19:11.834Z,8.47
2023-02-06T09:22:16.084Z,9.50
2023-02-06T09:25:20.242Z,10.70
2023-02-06T09:28:24.400Z,11.85
2023-02-06T09:31:33.582Z,12.02
2023-02-06T09:34:36.912Z,11.93
2023-02-06T09:37:39.764Z,16.88
2023-02-06T09:40:42.765Z,16.23
2023-02-06T09:44:07.112Z,16.50
2023-02-06T09:47:39.617Z,11.27
2023-02-06T09:50:58.775Z,11.03
2023-02-06T09:54:16.262Z,13.40
2023-02-06T09:57:42.281Z,23.10
2023-02-06T10:00:56.767Z,17.95
2023-02-06T10:04:20.526Z,31.88
2023-02-06T10:07:35.807Z,24.85
2023-02-06T10:10:44.980Z,22.38
2023-02-06T10:13:57.317Z,22.77
2023-02-06T10:17:06.677Z,18.55
2023-02-06T10:20:31.329Z,21.83
2023-02-06T10:24:16.630Z,40.63
2023-02-06T10:27:20.964Z,33.58
2023-02-06T10:30:53.807Z,30.10
2023-02-06T10:34:06.352Z,23.65
2023-02-06T10:37:28.416Z,19.40
2023-02-06T10:40:49.649Z,20.45
2023-02-06T10:44:20.387Z,16.13
2023-02-06T10:47:37.340Z,21.00
2023-02-06T10:50:46.991Z,23.80
2023-02-06T10:53:55.140Z,18.52
2023-02-06T10:57:00.791Z,18.00
2023-02-06T11:00:05.628Z,14.88
2023-02-06T11:03:17.564Z,21.50
2023-02-06T11:06:23.038Z,18.00
2023-02-06T11:09:27.431Z,19.20
2023-02-06T11:12:40.124Z,16.67
2023-02-06T11:16:16.837Z,18.60
2023-02-06T11:19:39.614Z,15.63
2023-02-06T11:22:52.262Z,21.08
2023-02-06T11:26:11.453Z,41.72
2023-02-06T11:29:37.741Z,52.93
2023-02-06T11:32:55.746Z,35.42
2023-02-06T11:36:18.730Z,28.83
2023-02-06T11:39:25.507Z,25.08
2023-02-06T11:42:29.180Z,31.27
2023-02-06T11:45:34.860Z,44.60
2023-02-06T11:48:55.905Z,37.28
2023-02-06T11:52:00.934Z,45.30
2023-02-06T11:55:05.593Z,43.65
2023-02-06T11:58:14.308Z,42.28
2023-02-06T12:01:22.506Z,36.67
2023-02-06T12:08:33.870Z,36.53
2023-02-06T12:11:51.780Z,43.50
2023-02-06T12:18:41.777Z,36.60
2023-02-06T12:21:54.695Z,36.40
2023-02-06T12:25:00.700Z,33.37
2023-02-06T12:28:23.088Z,39.88
2023-02-06T12:31:50.930Z,50.78
2023-02-06T12:35:12.433Z,42.87
2023-02-06T12:38:48.978Z,44.60
2023-02-06T12:42:26.097Z,28.00
2023-02-06T12:45:44.313Z,18.65
2023-02-06T12:48:57.541Z,15.40
2023-02-06T12:52:19.032Z,17.35
2023-02-06T12:55:36.509Z,11.50
2023-02-06T12:58:46.558Z,10.53
2023-02-06T13:02:34.031Z,12.07
2023-02-06T13:05:44.852Z,12.25
2023-02-06T13:08:56.845Z,16.83
2023-02-06T13:12:14.489Z,15.90
2023-02-06T13:15:36.783Z,16.63
2023-02-06T13:18:42.703Z,17.75
2023-02-06T13:21:53.295Z,25.73
2023-02-06T13:24:58.906Z,36.67
2023-02-06T13:28:25.708Z,29.58
2023-02-06T13:31:31.128Z,32.43
2023-02-06T13:34:35.790Z,35.50
2023-02-06T13:37:45.537Z,39.33
2023-02-06T13:41:09.199Z,33.00
2023-02-06T13:44:34.502Z,41.47
2023-02-06T13:47:49.240Z,48.22
2023-02-06T13:51:22.421Z,45.05
2023-02-06T13:54:51.132Z,35.10
2023-02-06T13:58:05.548Z,34.67
2023-02-06T14:01:20.936Z,38.15
2023-02-06T14:04:28.226Z,37.73
2023-02-06T14:07:56.250Z,35.78
2023-02-06T14:11:15.362Z,34.67
2023-02-06T14:14:46.513Z,36.10
2023-02-06T14:17:52.258Z,28.52
2023-02-06T14:21:00.664Z,25.40
2023-02-06T14:24:23.674Z,20.08
2023-02-06T14:27:35.274Z,12.73
2023-02-06T14:30:53.996Z,16.55
2023-02-06T14:34:25.972Z,21.50
2023-02-06T14:37:55.975Z,20.80
2023-02-06T14:41:00.419Z,20.10
2023-02-06T14:44:04.322Z,24.42
2023-02-06T14:47:16.926Z,19.73
2023-02-06T14:50:29.124Z,21.73
2023-02-06T14:53:33.796Z,25.75
2023-02-06T14:56:38.894Z,33.88
2023-02-06T14:59:55.568Z,31.02
2023-02-06T15:03:06.759Z,33.88
2023-02-06T15:06:16.232Z,32.33
2023-02-06T15:09:44.534Z,34.23
2023-02-06T15:12:54.540Z,31.48
2023-02-06T15:15:58.872Z,33.15
2023-02-06T15:19:20.110Z,35.77
2023-02-06T15:22:29.993Z,33.47
2023-02-06T15:25:42.825Z,35.83
2023-02-06T15:28:47.291Z,31.10
2023-02-06T15:31:53.771Z,28.55
2023-02-06T15:34:58.548Z,28.50
2023-02-06T15:38:07.145Z,21.52
2023-02-06T15:41:13.685Z,15.53
2023-02-06T15:44:22.702Z,18.80
2023-02-06T15:47:25.782Z,17.52
2023-02-06T15:50:29.437Z,18.80
2023-02-06T15:53:42.414Z,16.13
2023-02-06T15:56:51.727Z,16.90
2023-02-06T15:59:57.484Z,19.38
2023-02-06T16:03:18.706Z,21.25
2023-02-06T16:06:23.135Z,24.63
2023-02-06T16:09:26.855Z,25.10
2023-02-06T16:12:34.636Z,23.73
2023-02-06T16:15:39.859Z,23.88
2023-02-06T16:18:43.811Z,21.08
2023-02-06T16:22:16.442Z,22.03
2023-02-06T16:25:30.023Z,19.63
2023-02-06T16:28:41.852Z,17.20
2023-02-06T16:31:45.641Z,24.63
2023-02-06T16:34:49.067Z,23.02
2023-02-06T16:37:53.907Z,19.50
2023-02-06T16:40:57.552Z,20.25
2023-02-06T16:44:01.875Z,16.53
2023-02-06T16:47:05.012Z,11.55
2023-02-06T16:50:10.499Z,16.88
2023-02-06T16:53:26.116Z,12.37
2023-02-06T16:56:29.835Z,18.15
2023-02-06T16:59:32.689Z,14.82
2023-02-06T17:02:36.384Z,14.27
2023-02-06T17:05:41.525Z,13.82
2023-02-06T17:08:45.609Z,15.10
2023-02-06T17:11:48.506Z,13.88
2023-02-06T17:14:51.660Z,13.67
2023-02-06T17:17:55.280Z,12.13
2023-02-06T17:20:58.105Z,11.85
2023-02-06T17:24:02.448Z,9.60
2023-02-06T17:27:07.777Z,7.60
2023-02-06T17:30:18.672Z,7.15
2023-02-06T17:33:21.625Z,6.43
2023-02-06T17:36:30.052Z,4.63
2023-02-06T17:39:33.059Z,4.32
2023-02-06T17:42:36.718Z,4.53
2023-02-06T17:45:40.261Z,3.30
2023-02-06T17:48:45.009Z,3.95
2023-02-06T17:51:48.644Z,6.68
2023-02-06T17:54:52.630Z,10.83
2023-02-06T17:57:56.433Z,13.98
2023-02-06T18:01:00.144Z,15.18
2023-02-06T18:04:04.242Z,20.75
2023-02-06T18:07:08.972Z,11.32
2023-02-06T18:10:13.292Z,14.77
2023-02-06T18:13:16.543Z,8.40
2023-02-06T18:16:22.445Z,6.83
2023-02-06T18:19:26.171Z,9.40
2023-02-06T18:22:29.798Z,8.63
2023-02-06T18:25:33.369Z,5.30
2023-02-06T18:28:37.687Z,9.43
2023-02-06T18:31:40.726Z,5.93
2023-02-06T18:34:44.374Z,5.75
2023-02-06T18:37:47.668Z,7.72
2023-02-06T18:40:50.834Z,6.93
2023-02-06T18:43:53.735Z,6.80
2023-02-06T18:46:56.684Z,7.40
2023-02-06T18:50:00.863Z,7.85
2023-02-06T18:53:05.075Z,9.68
2023-02-06T18:56:08.662Z,11.50
2023-02-06T18:59:11.518Z,9.75
2023-02-06T19:02:15.135Z,5.70
2023-02-06T19:05:19.522Z,7.68
2023-02-06T19:08:23.319Z,6.30
2023-02-06T19:11:27.068Z,7.28
2023-02-06T19:14:30.385Z,6.15
2023-02-06T19:17:33.524Z,6.90
2023-02-06T19:20:36.749Z,12.43
2023-02-06T19:23:40.682Z,11.02
2023-02-06T19:26:44.492Z,10.27
2023-02-06T19:29:48.046Z,6.82
2023-02-06T19:32:52.443Z,4.40
2023-02-06T19:35:56.236Z,5.47
2023-02-06T19:39:04.903Z,8.93
2023-02-06T19:42:11.420Z,7.28
2023-02-06T19:45:14.321Z,6.95
2023-02-06T19:48:17.574Z,2.77
2023-02-06T19:51:26.472Z,5.88
2023-02-06T19:54:30.559Z,4.22
2023-02-06T19:57:33.750Z,4.27
2023-02-06T20:00:38.140Z,4.35
2023-02-06T20:03:41.415Z,3.90
2023-02-06T20:06:45.815Z,4.25
2023-02-06T20:09:48.684Z,2.80
2023-02-06T20:12:53.891Z,2.90
2023-02-06T20:16:03.680Z,2.45
2023-02-06T20:19:09.120Z,3.43
2023-02-06T20:22:12.052Z,2.75
2023-02-06T20:25:14.996Z,2.60
2023-02-06T20:28:17.941Z,2.40
2023-02-06T20:31:22.313Z,3.92
2023-02-06T20:34:26.737Z,6.93
2023-02-06T20:37:31.139Z,5.05
2023-02-06T20:40:34.166Z,7.90
2023-02-06T20:43:37.271Z,8.00
2023-02-06T20:46:40.860Z,9.35
2023-02-06T20:49:43.834Z,7.43
2023-02-06T20:52:46.861Z,7.00
2023-02-06T20:55:50.160Z,8.02
2023-02-06T20:58:54.055Z,14.97
2023-02-06T21:01:57.537Z,11.70
2023-02-06T21:05:01.299Z,5.95
2023-02-06T21:08:05.366Z,4.38
2023-02-06T21:11:09.374Z,3.17
2023-02-06T21:14:13.438Z,8.13
2023-02-06T21:17:17.091Z,2.33
2023-02-06T21:20:20.131Z,7.40
2023-02-06T21:23:24.724Z,6.72
2023-02-06T21:26:28.753Z,14.55
2023-02-06T21:29:31.658Z,22.43
2023-02-06T21:32:35.640Z,19.70
2023-02-06T21:35:40.844Z,15.82
2023-02-06T21:38:44.841Z,13.43
2023-02-06T21:41:51.932Z,9.27
2023-02-06T21:44:56.253Z,16.60
2023-02-06T21:47:59.191Z,12.75
2023-02-06T21:51:14.250Z,10.17
2023-02-06T21:54:18.210Z,8.57
2023-02-06T21:57:22.068Z,8.63
2023-02-06T22:00:25.888Z,10.93
2023-02-06T22:03:30.247Z,8.27
2023-02-06T22:06:36.112Z,12.88
2023-02-06T22:09:40.216Z,12.65
2023-02-06T22:12:43.780Z,7.60
2023-02-06T22:15:51.907Z,6.80
2023-02-06T22:18:56.329Z,9.90
2023-02-06T22:22:00.272Z,12.97
2023-02-06T22:25:04.188Z,8.68
2023-02-06T22:28:08.003Z,13.73
2023-02-06T22:31:15.491Z,13.00
2023-02-06T22:34:21.707Z,9.13
2023-02-06T22:37:25.409Z,12.00
2023-02-06T22:40:29.352Z,13.05
2023-02-06T22:43:34.750Z,17.05
2023-02-06T22:46:40.310Z,16.60
2023-02-06T22:49:43.992Z,19.30
2023-02-06T22:53:06.034Z,17.03
2023-02-06T22:56:33.133Z,23.02
2023-02-06T22:59:36.769Z,16.30
2023-02-06T23:02:40.183Z,34.40
2023-02-06T23:05:44.108Z,31.35
2023-02-06T23:08:47.823Z,28.02
2023-02-06T23:11:52.645Z,28.20
2023-02-06T23:14:55.971Z,29.25
2023-02-06T23:17:59.168Z,22.10
2023-02-06T23:21:12.545Z,19.23
2023-02-06T23:24:17.245Z,28.97
2023-02-06T23:27:21.602Z,20.77
2023-02-06T23:30:25.699Z,26.85
2023-02-06T23:33:28.668Z,30.20
2023-02-06T23:36:32.144Z,25.75
2023-02-06T23:39:34.955Z,29.55
2023-02-06T23:42:38.236Z,29.23
2023-02-06T23:45:42.379Z,33.35
2023-02-06T23:48:45.285Z,34.28
2023-02-06T23:51:48.546Z,31.52
2023-02-06T23:54:52.100Z,34.37
2023-02-06T23:57:55.960Z,24.70
